createdAt,value
2022-12-01T00:01:28.818Z,64.84
2022-12-01T00:03:57.702Z,64.60
2022-12-01T00:06:25.476Z,64.68
2022-12-01T00:09:16.465Z,64.59
2022-12-01T00:11:48.960Z,64.68
2022-12-01T00:14:17.406Z,64.80
2022-12-01T00:16:45.242Z,64.77
2022-12-01T00:19:13.065Z,64.77
2022-12-01T00:21:40.789Z,65.04
2022-12-01T00:24:09.458Z,65.02
2022-12-01T00:26:37.870Z,65.19
2022-12-01T00:29:05.640Z,65.07
2022-12-01T00:31:34.352Z,65.33
2022-12-01T00:34:05.607Z,65.82
2022-12-01T00:36:35.862Z,65.56
2022-12-01T00:39:03.619Z,65.42
2022-12-01T00:41:31.292Z,65.33
2022-12-01T00:43:59.005Z,65.47
2022-12-01T00:46:26.831Z,65.36
2022-12-01T00:48:54.592Z,65.18
2022-12-01T00:51:22.308Z,65.12
2022-12-01T00:53:50.040Z,65.31
2022-12-01T00:56:17.952Z,65.46
2022-12-01T00:58:45.679Z,65.16
2022-12-01T01:01:13.889Z,65.42
2022-12-01T01:03:41.691Z,65.15
2022-12-01T01:06:11.849Z,65.44
2022-12-01T01:08:40.522Z,65.07
2022-12-01T01:11:09.260Z,64.73
2022-12-01T01:13:37.558Z,64.70
2022-12-01T01:16:19.663Z,64.76
2022-12-01T01:18:48.316Z,65.41
2022-12-01T01:21:18.617Z,65.31
2022-12-01T01:23:47.023Z,65.40
2022-12-01T01:26:19.976Z,65.81
2022-12-01T01:28:48.824Z,65.56
2022-12-01T01:31:19.274Z,65.45
2022-12-01T01:33:47.688Z,65.66
2022-12-01T01:36:15.946Z,65.59
2022-12-01T01:38:43.882Z,65.20
2022-12-01T01:41:12.358Z,65.16
2022-12-01T01:43:51.717Z,65.00
2022-12-01T01:46:25.160Z,65.06
2022-12-01T01:49:05.197Z,65.05
2022-12-01T01:51:42.705Z,64.81
2022-12-01T01:54:33.747Z,64.98
2022-12-01T01:57:02.238Z,64.58
2022-12-01T01:59:33.124Z,64.64
2022-12-01T02:02:06.057Z,64.48
2022-12-01T02:04:36.400Z,64.72
2022-12-01T02:07:05.255Z,64.56
2022-12-01T02:09:33.009Z,64.65
2022-12-01T02:12:16.082Z,64.09
2022-12-01T02:14:49.899Z,64.13
2022-12-01T02:17:31.611Z,63.89
2022-12-01T02:20:11.770Z,64.01
2022-12-01T02:23:01.341Z,63.91
2022-12-01T02:26:06.900Z,63.71
2022-12-01T02:28:34.596Z,63.94
2022-12-01T02:31:33.949Z,64.23
2022-12-01T02:34:41.125Z,64.40
2022-12-01T02:37:21.078Z,64.75
2022-12-01T02:39:54.321Z,64.76
2022-12-01T02:42:54.608Z,64.83
2022-12-01T02:45:52.699Z,64.80
2022-12-01T02:48:23.277Z,64.56
2022-12-01T02:50:52.437Z,64.80
2022-12-01T02:53:20.592Z,64.85
2022-12-01T02:55:50.289Z,64.62
2022-12-01T02:58:18.217Z,64.42
2022-12-01T03:01:30.846Z,64.44
2022-12-01T03:04:01.469Z,64.24
2022-12-01T03:07:24.799Z,64.27
2022-12-01T03:10:20.114Z,63.82
2022-12-01T03:13:35.709Z,63.75
2022-12-01T03:16:15.911Z,63.82
2022-12-01T03:18:56.705Z,63.98
2022-12-01T03:21:37.068Z,64.06
2022-12-01T03:24:11.751Z,63.90
2022-12-01T03:26:42.057Z,63.58
2022-12-01T03:29:13.427Z,63.87
2022-12-01T03:32:03.876Z,63.68
2022-12-01T03:34:40.778Z,63.42
2022-12-01T03:37:36.557Z,63.56
2022-12-01T03:40:08.053Z,63.17
2022-12-01T03:42:40.694Z,63.23
2022-12-01T03:45:14.317Z,62.82
2022-12-01T03:47:42.194Z,62.89
2022-12-01T03:50:13.906Z,62.98
2022-12-01T03:53:00.619Z,63.12
2022-12-01T03:55:32.714Z,63.05
2022-12-01T03:58:06.709Z,63.12
2022-12-01T04:00:35.042Z,63.14
2022-12-01T04:03:04.236Z,63.35
2022-12-01T04:05:34.227Z,63.35
2022-12-01T04:08:02.409Z,63.28
2022-12-01T04:10:30.249Z,63.21
2022-12-01T04:12:59.707Z,62.90
2022-12-01T04:15:28.400Z,63.00
2022-12-01T04:17:56.486Z,62.84
2022-12-01T04:20:24.231Z,62.68
2022-12-01T04:22:52.096Z,62.31
2022-12-01T04:25:19.818Z,62.65
2022-12-01T04:27:50.171Z,62.94
2022-12-01T04:30:18.394Z,63.02
2022-12-01T04:32:46.585Z,63.34
2022-12-01T04:35:14.411Z,63.22
2022-12-01T04:37:42.130Z,63.14
2022-12-01T04:40:10.577Z,63.17
2022-12-01T04:42:38.316Z,62.99
2022-12-01T04:45:06.540Z,62.75
2022-12-01T04:47:34.219Z,62.46
2022-12-01T04:50:02.119Z,62.71
2022-12-01T04:52:34.988Z,62.74
2022-12-01T04:55:04.053Z,63.05
2022-12-01T04:57:31.736Z,63.15
2022-12-01T04:59:59.414Z,63.35
2022-12-01T05:02:27.256Z,63.30
2022-12-01T05:04:55.082Z,63.13
2022-12-01T05:07:22.844Z,63.03
2022-12-01T05:09:50.962Z,62.99
2022-12-01T05:12:20.436Z,62.83
2022-12-01T05:14:48.479Z,63.14
2022-12-01T05:17:16.219Z,63.25
2022-12-01T05:20:02.923Z,63.23
2022-12-01T05:22:57.257Z,62.79
2022-12-01T05:25:19.353Z,63.10
2022-12-01T05:27:47.024Z,63.26
2022-12-01T05:30:14.816Z,63.08
2022-12-01T05:32:42.631Z,63.13
2022-12-01T05:35:10.392Z,62.65
2022-12-01T05:37:38.276Z,62.52
2022-12-01T05:40:07.090Z,62.92
2022-12-01T05:42:34.861Z,62.91
2022-12-01T05:45:02.598Z,62.74
2022-12-01T05:47:30.342Z,62.66
2022-12-01T05:50:02.193Z,62.58
2022-12-01T05:52:35.183Z,62.70
2022-12-01T05:55:07.251Z,62.52
2022-12-01T05:57:34.964Z,62.47
2022-12-01T06:00:05.320Z,62.27
2022-12-01T06:02:40.306Z,62.11
2022-12-01T06:05:09.319Z,62.09
2022-12-01T06:07:40.150Z,62.47
2022-12-01T06:10:09.473Z,62.45
2022-12-01T06:12:37.653Z,62.93
2022-12-01T06:15:06.701Z,63.03
2022-12-01T06:17:39.751Z,63.20
2022-12-01T06:20:09.117Z,63.67
2022-12-01T06:22:37.346Z,63.69
2022-12-01T06:25:05.612Z,63.83
2022-12-01T06:27:33.340Z,63.74
2022-12-01T06:30:01.176Z,63.31
2022-12-01T06:32:28.893Z,63.29
2022-12-01T06:34:56.662Z,63.53
2022-12-01T06:37:24.400Z,63.77
2022-12-01T06:39:52.553Z,63.34
2022-12-01T06:42:20.604Z,63.12
2022-12-01T06:44:48.436Z,63.25
2022-12-01T06:47:16.160Z,63.49
2022-12-01T06:49:44.119Z,63.63
2022-12-01T06:52:11.898Z,63.70
2022-12-01T06:54:39.736Z,63.77
2022-12-01T06:57:07.762Z,63.40
2022-12-01T06:59:35.913Z,63.29
2022-12-01T07:02:04.226Z,63.19
2022-12-01T07:04:32.103Z,63.54
2022-12-01T07:06:59.821Z,63.25
2022-12-01T07:09:27.720Z,63.27
2022-12-01T07:11:55.540Z,63.61
2022-12-01T07:14:24.916Z,63.43
2022-12-01T07:16:53.092Z,63.43
2022-12-01T07:19:20.925Z,63.35
2022-12-01T07:21:48.798Z,63.51
2022-12-01T07:24:16.680Z,63.60
2022-12-01T07:26:44.575Z,63.49
2022-12-01T07:29:12.245Z,63.69
2022-12-01T07:31:40.063Z,63.47
2022-12-01T07:34:11.489Z,63.21
2022-12-01T07:36:39.536Z,63.32
2022-12-01T07:39:08.428Z,63.37
2022-12-01T07:41:36.304Z,63.42
2022-12-01T07:44:04.079Z,63.27
2022-12-01T07:46:32.293Z,63.02
2022-12-01T07:49:00.423Z,62.98
2022-12-01T07:51:28.303Z,63.03
2022-12-01T07:53:56.103Z,63.00
2022-12-01T07:56:23.938Z,63.00
2022-12-01T07:58:51.799Z,63.38
2022-12-01T08:01:22.355Z,63.42
2022-12-01T08:03:51.902Z,63.37
2022-12-01T08:06:20.456Z,63.25
2022-12-01T08:08:48.949Z,63.29
2022-12-01T08:11:22.239Z,63.29
2022-12-01T08:13:50.956Z,63.08
2022-12-01T08:16:20.603Z,62.86
2022-12-01T08:18:48.622Z,63.26
2022-12-01T08:21:19.722Z,63.10
2022-12-01T08:23:48.131Z,63.12
2022-12-01T08:26:18.597Z,63.23
2022-12-01T08:28:47.189Z,63.17
2022-12-01T08:31:24.840Z,63.82
2022-12-01T08:33:53.435Z,63.99
2022-12-01T08:36:22.812Z,64.93
2022-12-01T08:38:52.621Z,64.52
2022-12-01T08:41:20.856Z,64.65
2022-12-01T08:44:03.992Z,64.29
2022-12-01T08:46:33.633Z,64.52
2022-12-01T08:49:02.532Z,64.67
2022-12-01T08:51:30.925Z,63.41
2022-12-01T08:53:59.705Z,62.89
2022-12-01T08:56:27.367Z,63.01
2022-12-01T08:58:55.685Z,62.93
2022-12-01T09:01:25.596Z,62.51
2022-12-01T09:04:05.698Z,62.35
2022-12-01T09:06:44.475Z,62.05
2022-12-01T09:09:21.714Z,62.37
2022-12-01T09:11:52.223Z,62.26
2022-12-01T09:14:20.885Z,62.35
2022-12-01T09:16:50.176Z,62.16
2022-12-01T09:19:24.199Z,61.93
2022-12-01T09:21:53.055Z,61.80
2022-12-01T09:24:20.974Z,62.01
2022-12-01T09:26:49.436Z,62.14
2022-12-01T09:29:17.359Z,62.35
2022-12-01T09:31:45.132Z,62.54
2022-12-01T09:34:16.483Z,62.40
2022-12-01T09:36:45.393Z,62.43
2022-12-01T09:39:15.917Z,62.41
2022-12-01T09:42:08.414Z,62.28
2022-12-01T09:44:45.589Z,62.00
2022-12-01T09:47:18.953Z,61.75
2022-12-01T09:49:55.996Z,61.43
2022-12-01T09:52:26.248Z,61.75
2022-12-01T09:54:55.301Z,61.59
2022-12-01T09:57:35.285Z,61.72
2022-12-01T10:00:14.732Z,61.31
2022-12-01T10:03:40.465Z,61.38
2022-12-01T10:06:27.291Z,61.45
2022-12-01T10:09:16.132Z,61.52
2022-12-01T10:11:44.816Z,61.21
2022-12-01T10:14:20.030Z,61.24
2022-12-01T10:17:06.689Z,61.46
2022-12-01T10:19:49.844Z,61.10
2022-12-01T10:22:31.410Z,61.26
2022-12-01T10:25:25.358Z,61.40
2022-12-01T10:28:08.248Z,61.49
2022-12-01T10:30:46.649Z,61.42
2022-12-01T10:33:27.225Z,61.05
2022-12-01T10:35:54.989Z,61.13
2022-12-01T10:38:26.405Z,61.05
2022-12-01T10:40:54.732Z,61.16
2022-12-01T10:43:30.134Z,61.84
2022-12-01T10:45:58.225Z,61.26
2022-12-01T10:48:26.003Z,61.26
2022-12-01T10:50:56.158Z,61.19
2022-12-01T10:53:23.822Z,61.27
2022-12-01T10:56:15.226Z,61.30
2022-12-01T10:58:54.432Z,61.22
2022-12-01T11:01:27.088Z,61.57
2022-12-01T11:03:57.790Z,61.12
2022-12-01T11:06:28.412Z,61.23
2022-12-01T11:08:58.416Z,61.05
2022-12-01T11:11:34.190Z,60.96
2022-12-01T11:14:04.984Z,61.01
2022-12-01T11:16:44.196Z,60.64
2022-12-01T11:19:33.500Z,60.51
2022-12-01T11:22:17.523Z,60.46
2022-12-01T11:24:54.348Z,60.70
2022-12-01T11:27:24.330Z,60.90
2022-12-01T11:29:55.248Z,60.99
2022-12-01T11:32:24.309Z,61.18
2022-12-01T11:34:59.257Z,61.04
2022-12-01T11:37:36.293Z,61.17
2022-12-01T11:40:24.116Z,61.36
2022-12-01T11:42:54.693Z,61.24
2022-12-01T11:45:27.507Z,61.27
2022-12-01T11:48:00.431Z,61.16
2022-12-01T11:50:34.113Z,61.16
2022-12-01T11:53:02.278Z,61.09
2022-12-01T11:55:31.221Z,61.14
2022-12-01T11:58:04.116Z,61.25
2022-12-01T12:00:54.908Z,61.13
2022-12-01T12:03:38.066Z,61.16
2022-12-01T12:06:38.791Z,61.43
2022-12-01T12:09:08.762Z,61.25
2022-12-01T12:12:02.684Z,61.40
2022-12-01T12:15:02.497Z,61.03
2022-12-01T12:17:49.720Z,60.82
2022-12-01T12:20:39.331Z,60.71
2022-12-01T12:23:07.354Z,60.53
2022-12-01T12:26:02.659Z,60.86
2022-12-01T12:28:37.482Z,60.77
2022-12-01T12:31:11.128Z,60.69
2022-12-01T12:33:53.410Z,60.48
2022-12-01T12:36:35.293Z,60.99
2022-12-01T12:39:27.613Z,60.95
2022-12-01T12:41:56.755Z,61.10
2022-12-01T12:44:39.875Z,61.42
2022-12-01T12:47:31.121Z,61.50
2022-12-01T12:50:05.009Z,61.93
2022-12-01T12:52:45.926Z,62.01
2022-12-01T12:55:42.723Z,61.87
2022-12-01T12:58:27.550Z,61.93
2022-12-01T13:01:18.036Z,61.97
2022-12-01T13:03:55.244Z,62.07
2022-12-01T13:06:25.964Z,62.59
2022-12-01T13:09:03.186Z,62.32
2022-12-01T13:11:45.087Z,62.44
2022-12-01T13:14:28.661Z,62.47
2022-12-01T13:17:02.691Z,62.51
2022-12-01T13:19:33.768Z,62.44
2022-12-01T13:22:02.287Z,62.23
2022-12-01T13:24:31.313Z,61.81
2022-12-01T13:27:02.909Z,61.70
2022-12-01T13:29:38.389Z,61.84
2022-12-01T13:32:31.870Z,61.98
2022-12-01T13:35:00.822Z,61.99
2022-12-01T13:37:34.112Z,61.75
2022-12-01T13:40:20.270Z,61.73
2022-12-01T13:43:15.305Z,61.87
2022-12-01T13:45:43.483Z,61.69
2022-12-01T13:48:29.832Z,61.61
2022-12-01T13:51:00.376Z,61.56
2022-12-01T13:53:36.543Z,61.79
2022-12-01T13:56:05.584Z,61.52
2022-12-01T13:58:33.246Z,61.31
2022-12-01T14:01:20.089Z,61.61
2022-12-01T14:04:13.367Z,61.64
2022-12-01T14:06:49.375Z,61.63
2022-12-01T14:09:38.588Z,61.78
2022-12-01T14:12:25.857Z,61.94
2022-12-01T14:14:59.010Z,61.95
2022-12-01T14:17:28.919Z,62.07
2022-12-01T14:20:12.459Z,62.17
2022-12-01T14:22:41.996Z,62.55
2022-12-01T14:25:22.485Z,62.43
2022-12-01T14:27:54.155Z,62.19
2022-12-01T14:30:46.438Z,62.04
2022-12-01T14:33:39.521Z,62.24
2022-12-01T14:36:22.917Z,62.25
2022-12-01T14:38:59.632Z,62.03
2022-12-01T14:41:45.601Z,62.36
2022-12-01T14:44:23.443Z,62.29
2022-12-01T14:47:13.682Z,62.20
2022-12-01T14:49:47.677Z,62.53
2022-12-01T14:52:35.602Z,62.50
2022-12-01T14:55:06.981Z,62.40
2022-12-01T14:57:39.946Z,62.33
2022-12-01T15:00:14.694Z,62.56
2022-12-01T15:02:47.537Z,62.44
2022-12-01T15:05:21.044Z,62.47
2022-12-01T15:07:50.483Z,62.36
2022-12-01T15:10:22.903Z,62.29
2022-12-01T15:12:51.861Z,62.25
2022-12-01T15:15:24.283Z,62.40
2022-12-01T15:17:57.765Z,62.18
2022-12-01T15:20:36.100Z,61.87
2022-12-01T15:23:15.430Z,62.06
2022-12-01T15:25:45.054Z,61.80
2022-12-01T15:28:21.093Z,62.01
2022-12-01T15:30:54.315Z,61.51
2022-12-01T15:33:28.269Z,61.68
2022-12-01T15:35:59.206Z,61.69
2022-12-01T15:38:30.668Z,61.63
2022-12-01T15:41:28.501Z,61.74
2022-12-01T15:43:56.077Z,61.69
2022-12-01T15:46:32.186Z,62.00
2022-12-01T15:49:17.804Z,62.04
2022-12-01T15:51:47.280Z,61.67
2022-12-01T15:54:21.688Z,61.90
2022-12-01T15:56:55.121Z,61.89
2022-12-01T15:59:35.186Z,62.02
2022-12-01T16:02:23.845Z,62.09
2022-12-01T16:05:04.392Z,62.31
2022-12-01T16:08:04.939Z,62.55
2022-12-01T16:10:31.935Z,62.26
2022-12-01T16:13:42.437Z,62.40
2022-12-01T16:16:42.046Z,62.25
2022-12-01T16:19:09.788Z,62.17
2022-12-01T16:21:46.769Z,62.34
2022-12-01T16:24:22.892Z,62.12
2022-12-01T16:26:57.275Z,62.07
2022-12-01T16:29:26.908Z,61.96
2022-12-01T16:32:19.314Z,62.06
2022-12-01T16:34:46.734Z,62.19
2022-12-01T16:37:14.991Z,61.89
2022-12-01T16:39:42.729Z,62.13
2022-12-01T16:42:13.145Z,62.27
2022-12-01T16:44:42.646Z,62.48
2022-12-01T16:47:22.976Z,62.57
2022-12-01T16:49:52.955Z,62.47
2022-12-01T16:55:25.715Z,62.37
2022-12-01T16:57:53.793Z,62.46
2022-12-01T17:00:22.891Z,62.63
2022-12-01T17:02:51.046Z,62.74
2022-12-01T17:05:19.191Z,62.57
2022-12-01T17:07:47.485Z,62.63
2022-12-01T17:10:15.965Z,62.40
2022-12-01T17:12:43.719Z,62.38
2022-12-01T17:15:11.587Z,62.21
2022-12-01T17:17:39.314Z,62.42
2022-12-01T17:20:08.485Z,62.42
2022-12-01T17:22:36.530Z,62.22
2022-12-01T17:25:05.229Z,62.05
2022-12-01T17:27:33.029Z,61.95
2022-12-01T17:30:03.219Z,62.12
2022-12-01T17:32:31.060Z,62.16
2022-12-01T17:34:59.018Z,62.32
2022-12-01T17:37:28.006Z,62.21
2022-12-01T17:39:56.194Z,62.19
2022-12-01T17:42:24.030Z,62.18
2022-12-01T17:44:52.201Z,62.19
2022-12-01T17:47:20.103Z,62.30
2022-12-01T17:49:47.991Z,62.24
2022-12-01T17:52:18.868Z,62.32
2022-12-01T17:54:50.546Z,62.37
2022-12-01T17:57:18.897Z,62.24
2022-12-01T17:59:46.709Z,62.39
2022-12-01T18:02:14.537Z,62.45
2022-12-01T18:04:42.511Z,62.40
2022-12-01T18:07:10.792Z,61.92
2022-12-01T18:09:38.549Z,61.86
2022-12-01T18:12:06.685Z,61.76
2022-12-01T18:14:37.513Z,61.85
2022-12-01T18:17:05.596Z,61.81
2022-12-01T18:19:33.346Z,62.15
2022-12-01T18:22:01.128Z,62.24
2022-12-01T18:24:29.006Z,61.99
2022-12-01T18:26:57.030Z,62.02
2022-12-01T18:29:28.691Z,62.05
2022-12-01T18:31:58.080Z,61.84
2022-12-01T18:34:27.148Z,61.68
2022-12-01T18:36:55.606Z,61.61
2022-12-01T18:39:23.585Z,61.48
2022-12-01T18:41:51.459Z,61.52
2022-12-01T18:44:19.176Z,61.45
2022-12-01T18:46:47.008Z,61.61
2022-12-01T18:49:15.338Z,61.67
2022-12-01T18:51:43.201Z,61.74
2022-12-01T18:54:13.903Z,61.83
2022-12-01T18:56:42.348Z,61.86
2022-12-01T18:59:11.833Z,62.14
2022-12-01T19:01:43.508Z,61.99
2022-12-01T19:04:12.053Z,62.26
2022-12-01T19:06:41.630Z,62.09
2022-12-01T19:09:11.658Z,61.87
2022-12-01T19:11:40.762Z,61.57
2022-12-01T19:14:13.606Z,61.63
2022-12-01T19:16:41.762Z,61.41
2022-12-01T19:19:10.256Z,61.37
2022-12-01T19:21:38.233Z,61.52
2022-12-01T19:24:06.656Z,61.35
2022-12-01T19:26:34.431Z,60.96
2022-12-01T19:29:03.481Z,60.60
2022-12-01T19:31:31.336Z,60.81
2022-12-01T19:33:59.419Z,60.83
2022-12-01T19:36:28.266Z,60.96
2022-12-01T19:38:57.812Z,61.02
2022-12-01T19:41:26.321Z,60.85
2022-12-01T19:43:58.680Z,60.90
2022-12-01T19:46:28.887Z,61.20
2022-12-01T19:49:02.867Z,61.53
2022-12-01T19:51:35.229Z,61.37
2022-12-01T19:54:10.909Z,61.59
2022-12-01T19:56:38.695Z,61.48
2022-12-01T19:59:08.004Z,61.31
2022-12-01T20:01:36.019Z,61.17
2022-12-01T20:04:04.676Z,61.00
2022-12-01T20:06:35.572Z,61.13
2022-12-01T20:09:05.339Z,61.12
2022-12-01T20:11:35.125Z,61.08
2022-12-01T20:14:04.331Z,61.28
2022-12-01T20:16:32.319Z,61.41
2022-12-01T20:19:02.625Z,61.49
2022-12-01T20:21:32.596Z,61.21
2022-12-01T20:24:06.301Z,61.20
2022-12-01T20:26:39.658Z,61.05
2022-12-01T20:29:13.829Z,61.20
2022-12-01T20:31:42.464Z,61.04
2022-12-01T20:34:31.402Z,60.98
2022-12-01T20:36:59.493Z,61.07
2022-12-01T20:39:28.484Z,61.28
2022-12-01T20:41:56.215Z,61.42
2022-12-01T20:44:23.964Z,61.23
2022-12-01T20:46:52.686Z,61.39
2022-12-01T20:49:20.587Z,61.38
2022-12-01T20:51:48.611Z,61.54
2022-12-01T20:54:32.745Z,61.44
2022-12-01T20:57:00.782Z,61.53
2022-12-01T20:59:29.191Z,61.16
2022-12-01T21:01:57.289Z,61.38
2022-12-01T21:04:25.236Z,61.61
2022-12-01T21:06:57.430Z,61.76
2022-12-01T21:09:26.135Z,61.81
2022-12-01T21:12:13.490Z,61.92
2022-12-01T21:15:01.539Z,61.50
2022-12-01T21:17:46.689Z,61.48
2022-12-01T21:20:22.142Z,61.86
2022-12-01T21:22:50.398Z,61.69
2022-12-01T21:25:20.803Z,61.90
2022-12-01T21:27:48.885Z,62.08
2022-12-01T21:30:22.535Z,62.07
2022-12-01T21:32:50.394Z,62.12
2022-12-01T21:35:22.151Z,62.02
2022-12-01T21:37:51.224Z,61.70
2022-12-01T21:40:24.290Z,61.78
2022-12-01T21:42:52.048Z,61.88
2022-12-01T21:45:32.131Z,61.56
2022-12-01T21:48:06.662Z,61.77
2022-12-01T21:50:34.391Z,61.94
2022-12-01T21:53:02.118Z,61.57
2022-12-01T21:55:34.929Z,61.84
2022-12-01T21:58:02.990Z,61.91
2022-12-01T22:00:31.787Z,62.15
2022-12-01T22:03:21.635Z,61.82
2022-12-01T22:06:13.623Z,61.90
2022-12-01T22:08:41.493Z,61.99
2022-12-01T22:11:18.523Z,62.01
2022-12-01T22:14:06.555Z,61.91
2022-12-01T22:16:37.292Z,62.16
2022-12-01T22:19:23.552Z,62.08
2022-12-01T22:22:15.836Z,62.01
2022-12-01T22:24:48.594Z,62.29
2022-12-01T22:27:32.489Z,62.39
2022-12-01T22:30:17.057Z,62.68
2022-12-01T22:32:59.744Z,62.84
2022-12-01T22:35:42.030Z,62.89
2022-12-01T22:38:31.382Z,62.86
2022-12-01T22:41:06.095Z,62.34
2022-12-01T22:43:55.874Z,62.36
2022-12-01T22:46:23.785Z,62.44
2022-12-01T22:49:13.736Z,62.38
2022-12-01T22:51:43.796Z,62.08
2022-12-01T22:54:14.521Z,61.98
2022-12-01T22:56:42.191Z,61.77
2022-12-01T22:59:19.669Z,61.78
2022-12-01T23:01:58.915Z,61.77
2022-12-01T23:04:33.378Z,61.58
2022-12-01T23:07:27.207Z,61.82
2022-12-01T23:10:16.475Z,62.00
2022-12-01T23:12:46.244Z,62.08
2022-12-01T23:15:20.221Z,62.27
2022-12-01T23:17:49.260Z,62.42
2022-12-01T23:20:20.052Z,62.33
2022-12-01T23:22:47.989Z,62.45
2022-12-01T23:25:19.202Z,62.54
2022-12-01T23:27:49.019Z,62.61
2022-12-01T23:30:18.065Z,62.46
2022-12-01T23:32:52.525Z,62.41
2022-12-01T23:35:20.215Z,62.44
2022-12-01T23:37:48.226Z,62.52
2022-12-01T23:40:34.009Z,62.39
2022-12-01T23:43:17.679Z,62.58
2022-12-01T23:45:45.938Z,62.72
2022-12-01T23:48:20.685Z,62.61
2022-12-01T23:50:53.578Z,62.25
2022-12-01T23:53:32.370Z,62.14
2022-12-01T23:56:09.236Z,62.13
2022-12-01T23:58:36.993Z,62.46
